Time;durP1;ratioP1;P1;durP2;ratioP2;P2;SDS_P1;SDS_P2;PMS_P1;PMS_P2;Temp;Humidity;BMP_temperature;BMP_pressure;BME280_temperature;BME280_humidity;BME280_pressure;Samples;Min_cycle;Max_cycle;Signal;HPM_P1;HPM_P2
2020/12/30 00:00:30;;;;;;;4.28;2.38;;;10.70;85.10;;;;;;5096922;28;20399;-46
2020/12/30 00:02:56;;;;;;;4.18;2.10;;;10.70;85.20;;;;;;5096514;28;20515;-46
2020/12/30 00:05:22;;;;;;;6.78;2.92;;;10.60;85.50;;;;;;5096563;28;20111;-46
2020/12/30 00:07:47;;;;;;;4.97;2.70;;;10.70;85.50;;;;;;5096351;28;20063;-46
2020/12/30 00:10:17;;;;;;;4.57;2.35;;;10.70;85.40;;;;;;5096555;28;20468;-46
2020/12/30 00:12:43;;;;;;;3.28;2.38;;;10.70;85.40;;;;;;5096119;28;20028;-46
2020/12/30 00:15:09;;;;;;;5.07;2.40;;;10.70;85.30;;;;;;5096280;28;20109;-48
2020/12/30 00:17:40;;;;;;;3.00;1.73;;;10.70;85.60;;;;;;5096280;28;20039;-47
2020/12/30 00:20:08;;;;;;;7.63;2.38;;;10.60;85.90;;;;;;5096074;28;20102;-46
2020/12/30 00:22:34;;;;;;;4.55;2.67;;;10.70;86.00;;;;;;5096164;28;20024;-47
2020/12/30 00:24:59;;;;;;;4.72;1.75;;;10.60;86.00;;;;;;5095986;28;20382;-46
2020/12/30 00:27:25;;;;;;;4.68;2.35;;;10.60;86.20;;;;;;5096166;28;20028;-46
2020/12/30 00:29:51;;;;;;;4.07;2.28;;;10.60;86.60;;;;;;5096019;28;20089;-47
2020/12/30 00:32:17;;;;;;;3.38;1.92;;;10.60;86.70;;;;;;5096080;28;20032;-46
2020/12/30 00:34:43;;;;;;;4.47;1.65;;;10.60;86.80;;;;;;5095823;28;20384;-47
2020/12/30 00:37:12;;;;;;;2.97;1.73;;;10.60;86.80;;;;;;5095936;28;20582;-46
2020/12/30 00:39:38;;;;;;;6.68;2.55;;;10.60;86.40;;;;;;5095962;28;20552;-47
2020/12/30 00:42:04;;;;;;;2.85;1.67;;;10.70;86.20;;;;;;5095885;28;20097;-47
2020/12/30 00:44:29;;;;;;;3.88;2.13;;;10.70;86.00;;;;;;5095683;28;20024;-46
2020/12/30 00:46:57;;;;;;;2.85;1.33;;;10.80;85.60;;;;;;5094598;28;20032;-47
2020/12/30 00:49:23;;;;;;;2.83;1.73;;;10.70;85.80;;;;;;5095713;28;20544;-46
2020/12/30 00:51:57;;;;;;;3.63;2.00;;;10.70;85.90;;;;;;5095504;28;20028;-46
2020/12/30 00:54:24;;;;;;;5.57;1.90;;;10.70;86.10;;;;;;5059761;28;20102;-46
2020/12/30 00:56:51;;;;;;;5.18;2.22;;;10.70;86.00;;;;;;5095344;28;20036;-46
2020/12/30 00:59:18;;;;;;;5.05;2.10;;;10.80;85.70;;;;;;5095518;28;20107;-46
2020/12/30 01:01:49;;;;;;;2.85;2.00;;;10.80;85.60;;;;;;5076690;28;20068;-46
2020/12/30 01:04:15;;;;;;;5.87;1.90;;;10.80;85.40;;;;;;5095393;28;20081;-47
2020/12/30 01:06:41;;;;;;;4.38;2.00;;;10.90;85.40;;;;;;5095481;28;20032;-46
2020/12/30 01:09:07;;;;;;;4.60;1.60;;;10.90;86.10;;;;;;5095229;28;20468;-47
2020/12/30 01:11:33;;;;;;;3.47;1.55;;;10.90;85.10;;;;;;5095251;28;20043;-47
2020/12/30 01:13:59;;;;;;;4.00;2.83;;;10.90;84.80;;;;;;5059753;28;20051;-46
2020/12/30 01:16:25;;;;;;;5.28;1.38;;;11.00;84.50;;;;;;5095082;28;20028;-46
2020/12/30 01:18:52;;;;;;;3.95;2.22;;;11.00;84.40;;;;;;5095020;28;20028;-46
2020/12/30 01:21:17;;;;;;;4.28;2.10;;;11.00;84.20;;;;;;5094927;28;20204;-46
2020/12/30 01:23:43;;;;;;;3.97;1.83;;;11.00;84.10;;;;;;5095025;28;20064;-46
2020/12/30 01:26:10;;;;;;;5.45;1.80;;;11.00;84.10;;;;;;5094956;28;20480;-46
2020/12/30 01:28:36;;;;;;;7.05;2.03;;;11.00;84.10;;;;;;5095063;28;20035;-47
2020/12/30 01:31:03;;;;;;;2.95;1.77;;;11.00;84.00;;;;;;5094851;28;20063;-46
2020/12/30 01:33:28;;;;;;;3.78;1.92;;;10.90;84.10;;;;;;5094670;28;20032;-46
2020/12/30 01:35:54;;;;;;;3.92;1.55;;;10.90;84.30;;;;;;5094876;28;20166;-46
2020/12/30 01:38:20;;;;;;;3.95;2.03;;;10.90;84.80;;;;;;5094678;28;20042;-48
2020/12/30 01:40:46;;;;;;;4.63;1.75;;;10.80;84.80;;;;;;5094934;28;20025;-46
2020/12/30 01:43:13;;;;;;;2.90;1.80;;;10.90;84.60;;;;;;5094698;28;20119;-46
2020/12/30 01:45:39;;;;;;;5.00;1.48;;;10.80;84.90;;;;;;5094498;28;20123;-46
2020/12/30 01:48:17;;;;;;;6.30;1.60;;;10.80;84.90;;;;;;5094362;28;20059;-46
2020/12/30 01:50:44;;;;;;;5.38;2.20;;;10.70;85.00;;;;;;5058972;28;20109;-46
2020/12/30 01:53:11;;;;;;;2.53;1.83;;;10.70;84.90;;;;;;5094362;28;20463;-46
2020/12/30 01:55:39;;;;;;;3.88;1.85;;;10.70;85.20;;;;;;5094886;28;20034;-47
2020/12/30 01:58:10;;;;;;;5.88;2.05;;;10.70;85.50;;;;;;5093871;28;20396;-46
2020/12/30 02:00:37;;;;;;;3.55;1.85;;;10.70;85.40;;;;;;5094330;28;20392;-46
2020/12/30 02:03:04;;;;;;;4.53;1.83;;;10.70;85.20;;;;;;5094271;28;20066;-46
2020/12/30 02:05:31;;;;;;;7.03;1.80;;;10.70;85.20;;;;;;5094378;28;20032;-46
2020/12/30 02:08:01;;;;;;;3.15;1.90;;;10.70;85.40;;;;;;5075259;28;20040;-46
2020/12/30 02:10:28;;;;;;;3.90;1.50;;;10.60;85.60;;;;;;5094374;28;20040;-46
2020/12/30 02:12:57;;;;;;;6.15;2.10;;;10.60;85.60;;;;;;5093717;28;20024;-47
2020/12/30 02:15:33;;;;;;;6.40;1.95;;;10.60;85.90;;;;;;5094177;28;20039;-46
2020/12/30 02:18:00;;;;;;;4.53;1.80;;;10.50;86.00;;;;;;5093886;28;20054;-47
2020/12/30 02:20:30;;;;;;;6.88;2.30;;;10.50;86.10;;;;;;5093814;28;20044;-46
2020/12/30 02:23:03;;;;;;;6.03;2.42;;;10.40;86.10;;;;;;5093696;28;20032;-47
2020/12/30 02:25:29;;;;;;;7.95;2.40;;;10.50;86.10;;;;;;5094309;28;20094;-46
2020/12/30 02:27:55;;;;;;;5.72;2.45;;;10.50;85.70;;;;;;5093881;28;20036;-47
2020/12/30 02:30:20;;;;;;;5.78;2.63;;;10.50;85.50;;;;;;5093863;28;20431;-46
2020/12/30 02:32:47;;;;;;;6.10;3.13;;;10.60;85.40;;;;;;5093025;28;20089;-46
2020/12/30 02:35:14;;;;;;;5.78;2.58;;;10.60;85.20;;;;;;5093772;28;20039;-46
2020/12/30 02:37:40;;;;;;;10.35;2.30;;;10.30;86.10;;;;;;5093758;28;20036;-46
2020/12/30 02:40:06;;;;;;;7.30;2.63;;;10.20;86.70;;;;;;5093846;28;20068;-46
2020/12/30 02:42:32;;;;;;;2.65;1.40;;;10.20;87.10;;;;;;5058348;28;20036;-47
2020/12/30 02:45:06;;;;;;;5.80;2.33;;;10.20;87.10;;;;;;5092574;28;20434;-46
2020/12/30 02:47:32;;;;;;;5.90;2.80;;;10.30;86.60;;;;;;5093753;28;20394;-46
2020/12/30 02:49:58;;;;;;;5.65;2.08;;;10.30;86.00;;;;;;5093579;28;20063;-46
2020/12/30 02:52:25;;;;;;;10.95;2.72;;;10.50;85.70;;;;;;5093565;28;20028;-46
2020/12/30 02:54:51;;;;;;;5.75;2.50;;;10.60;85.30;;;;;;5074801;28;20056;-47
2020/12/30 02:57:17;;;;;;;7.18;2.55;;;10.60;85.30;;;;;;5093348;28;20066;-46
2020/12/30 02:59:43;;;;;;;6.70;2.45;;;10.60;84.90;;;;;;5093540;28;20471;-47
2020/12/30 03:02:08;;;;;;;5.75;2.00;;;10.60;84.90;;;;;;5093358;28;20066;-46
2020/12/30 03:04:35;;;;;;;6.38;2.60;;;10.50;85.20;;;;;;5093305;28;20032;-46
2020/12/30 03:07:01;;;;;;;8.88;2.83;;;10.50;85.30;;;;;;5093253;28;20101;-47
2020/12/30 03:09:26;;;;;;;9.20;3.20;;;10.50;85.40;;;;;;5095276;28;20451;-47
2020/12/30 03:11:52;;;;;;;5.50;2.08;;;10.40;85.20;;;;;;5097495;28;20055;-46
2020/12/30 03:14:19;;;;;;;6.93;2.75;;;10.40;85.00;;;;;;5097536;28;20048;-46
2020/12/30 03:16:45;;;;;;;6.20;2.80;;;10.40;85.00;;;;;;5097472;28;20043;-47
2020/12/30 03:19:11;;;;;;;7.75;2.75;;;10.40;84.90;;;;;;5097299;28;20479;-47
2020/12/30 03:21:37;;;;;;;6.80;2.78;;;10.50;84.90;;;;;;5097173;28;20040;-47
2020/12/30 03:24:03;;;;;;;8.05;2.50;;;10.50;84.70;;;;;;5097098;28;20109;-47
2020/12/30 03:26:32;;;;;;;7.68;2.60;;;10.50;84.60;;;;;;5097257;28;20024;-46
2020/12/30 03:28:58;;;;;;;9.77;2.70;;;10.50;84.80;;;;;;5097108;28;20039;-47
2020/12/30 03:31:24;;;;;;;8.18;3.50;;;10.50;84.60;;;;;;5097070;28;20062;-46
2020/12/30 03:33:50;;;;;;;7.43;2.53;;;10.50;84.60;;;;;;5096902;28;20056;-46
2020/12/30 03:36:15;;;;;;;6.10;2.33;;;10.50;84.50;;;;;;5097197;28;20035;-47
2020/12/30 03:38:41;;;;;;;7.90;2.55;;;10.50;84.20;;;;;;5097268;28;20036;-47
2020/12/30 03:41:07;;;;;;;9.02;2.55;;;10.50;84.00;;;;;;5096842;28;20036;-46
2020/12/30 03:43:34;;;;;;;6.00;2.33;;;10.60;84.10;;;;;;5096125;28;20064;-47
2020/12/30 03:46:00;;;;;;;6.60;2.90;;;10.50;84.00;;;;;;5093489;28;20032;-48
2020/12/30 03:48:26;;;;;;;7.53;2.72;;;10.60;83.80;;;;;;5095846;28;20085;-46
2020/12/30 03:50:53;;;;;;;8.32;2.80;;;10.60;83.40;;;;;;5095853;28;20040;-49
2020/12/30 03:53:19;;;;;;;4.50;2.28;;;10.70;83.30;;;;;;5091932;28;20063;-47
2020/12/30 03:55:44;;;;;;;8.65;2.28;;;10.80;83.10;;;;;;5076332;28;20044;-46
2020/12/30 03:58:10;;;;;;;4.80;2.33;;;10.80;82.60;;;;;;5076372;28;20032;-47
2020/12/30 04:00:36;;;;;;;6.68;2.53;;;10.90;82.50;;;;;;5076557;28;20047;-47
2020/12/30 04:03:01;;;;;;;7.32;2.42;;;10.90;82.20;;;;;;5076259;28;20021;-46
2020/12/30 04:05:27;;;;;;;7.80;3.20;;;10.90;82.30;;;;;;5076367;28;20028;-47
2020/12/30 04:07:53;;;;;;;5.97;2.00;;;10.80;82.50;;;;;;5074277;28;20048;-47
2020/12/30 04:10:19;;;;;;;6.28;2.42;;;10.80;82.50;;;;;;5076092;28;20028;-46
2020/12/30 04:12:45;;;;;;;7.05;2.13;;;10.90;82.60;;;;;;5076091;28;20048;-46
2020/12/30 04:15:11;;;;;;;6.78;2.85;;;10.90;82.20;;;;;;5076052;28;20114;-47
2020/12/30 04:17:36;;;;;;;5.80;2.70;;;11.00;82.00;;;;;;5074238;28;20032;-47
2020/12/30 04:20:03;;;;;;;8.02;2.58;;;11.00;81.70;;;;;;5075647;28;20045;-47
2020/12/30 04:22:28;;;;;;;6.50;2.97;;;11.10;81.70;;;;;;5074335;28;20045;-48
2020/12/30 04:24:54;;;;;;;5.00;2.47;;;11.10;81.60;;;;;;5076002;28;20086;-47
2020/12/30 04:27:20;;;;;;;6.57;2.63;;;11.10;81.50;;;;;;5075791;28;20035;-47
2020/12/30 04:29:45;;;;;;;11.07;2.83;;;11.10;81.50;;;;;;5076139;28;20052;-47
2020/12/30 04:32:11;;;;;;;6.78;2.50;;;10.90;81.80;;;;;;5040663;28;20040;-48
2020/12/30 04:34:37;;;;;;;9.32;2.75;;;11.00;81.70;;;;;;5075825;28;20361;-47
2020/12/30 04:37:03;;;;;;;7.82;2.40;;;11.00;81.70;;;;;;5075792;28;20035;-47
2020/12/30 04:39:28;;;;;;;9.65;2.83;;;10.90;81.70;;;;;;5075578;28;20029;-48
2020/12/30 04:42:00;;;;;;;7.65;2.80;;;10.90;82.20;;;;;;5056930;28;20068;-47
2020/12/30 04:44:30;;;;;;;4.28;2.33;;;10.90;82.40;;;;;;5075690;28;20426;-48
2020/12/30 04:46:58;;;;;;;4.93;2.47;;;10.80;82.60;;;;;;5057138;28;20032;-47
2020/12/30 04:49:24;;;;;;;5.80;2.53;;;10.90;82.50;;;;;;5075474;28;20035;-47
2020/12/30 04:51:52;;;;;;;4.97;2.55;;;11.00;81.90;;;;;;5075530;28;20024;-47
2020/12/30 04:54:20;;;;;;;6.95;2.25;;;11.10;81.50;;;;;;5075165;28;20084;-48
2020/12/30 04:57:03;;;;;;;6.13;2.67;;;11.10;81.20;;;;;;5075298;28;20040;-47
2020/12/30 04:59:33;;;;;;;5.13;2.40;;;11.10;81.00;;;;;;5075197;28;20028;-48
2020/12/30 05:02:06;;;;;;;5.90;2.50;;;11.00;81.20;;;;;;5075188;28;20078;-47
2020/12/30 05:04:33;;;;;;;6.60;2.45;;;11.00;81.40;;;;;;5075145;28;20102;-48
2020/12/30 05:07:13;;;;;;;6.65;2.22;;;10.90;81.60;;;;;;5075156;28;20052;-48
2020/12/30 05:09:42;;;;;;;6.18;2.35;;;10.90;81.70;;;;;;5074907;28;20020;-48
2020/12/30 05:12:13;;;;;;;9.20;2.92;;;10.90;82.00;;;;;;5075073;28;20048;-48
2020/12/30 05:14:40;;;;;;;7.75;3.45;;;10.90;82.20;;;;;;5074680;28;20048;-47
2020/12/30 05:17:07;;;;;;;6.90;2.95;;;10.90;82.30;;;;;;5074747;28;20029;-47
2020/12/30 05:19:33;;;;;;;6.28;2.38;;;10.90;82.20;;;;;;5074419;28;20024;-48
2020/12/30 05:21:58;;;;;;;5.10;2.88;;;10.90;82.30;;;;;;5039846;28;20431;-47
2020/12/30 05:24:24;;;;;;;4.20;2.15;;;10.90;82.40;;;;;;5074842;28;20020;-47
2020/12/30 05:26:52;;;;;;;6.38;2.30;;;10.90;82.40;;;;;;5074685;28;20511;-47
2020/12/30 05:29:18;;;;;;;7.90;2.63;;;10.90;82.30;;;;;;5074601;28;20029;-47
2020/12/30 05:31:55;;;;;;;6.88;3.03;;;11.00;82.00;;;;;;5074028;28;20025;-47
2020/12/30 05:34:22;;;;;;;5.97;1.90;;;11.00;81.80;;;;;;5055970;28;20048;-49
2020/12/30 05:36:50;;;;;;;7.38;2.10;;;10.90;82.40;;;;;;5074750;28;20078;-48
2020/12/30 05:39:20;;;;;;;8.23;2.55;;;10.90;82.70;;;;;;5074675;28;20031;-48
2020/12/30 05:41:45;;;;;;;5.35;1.67;;;10.80;83.00;;;;;;5074564;28;20082;-48
2020/12/30 05:44:18;;;;;;;4.68;2.03;;;10.70;83.80;;;;;;5074368;28;20024;-48
2020/12/30 05:46:45;;;;;;;6.75;2.65;;;10.60;84.20;;;;;;5055968;28;20037;-48
2020/12/30 05:49:28;;;;;;;8.43;2.20;;;10.60;83.90;;;;;;5089170;28;20127;-48
2020/12/30 05:51:56;;;;;;;4.90;1.77;;;10.60;83.90;;;;;;5074501;28;20025;-48
2020/12/30 05:54:22;;;;;;;5.25;1.98;;;10.60;84.30;;;;;;5074106;28;20078;-49
2020/12/30 05:56:48;;;;;;;5.55;2.47;;;10.60;84.50;;;;;;5072437;28;20408;-48
2020/12/30 05:59:17;;;;;;;5.22;2.60;;;10.50;84.30;;;;;;5074312;28;20512;-48
2020/12/30 06:01:44;;;;;;;10.77;2.65;;;10.50;84.40;;;;;;5073927;28;20024;-48
2020/12/30 06:04:19;;;;;;;6.30;2.08;;;10.40;84.70;;;;;;5055667;28;20044;-48
2020/12/30 06:06:47;;;;;;;5.28;1.92;;;10.50;84.70;;;;;;5074204;28;20020;-48
2020/12/30 06:09:17;;;;;;;5.07;1.88;;;10.40;84.70;;;;;;5073815;28;20107;-48
2020/12/30 06:11:53;;;;;;;8.07;2.53;;;10.40;84.50;;;;;;5073812;28;20028;-48
2020/12/30 06:14:20;;;;;;;4.57;2.35;;;10.40;85.00;;;;;;5073686;28;20040;-48
2020/12/30 06:16:46;;;;;;;2.50;1.65;;;;;;;;;;5074099;28;20024;-48
2020/12/30 06:19:13;;;;;;;8.05;3.88;;;10.20;85.60;;;;;;5073781;28;20036;-48
2020/12/30 06:21:45;;;;;;;8.57;3.72;;;10.20;86.20;;;;;;5073438;28;20106;-48
2020/12/30 06:24:14;;;;;;;7.97;2.97;;;10.30;85.80;;;;;;5073835;28;20027;-48
2020/12/30 06:26:40;;;;;;;4.75;2.15;;;10.20;85.90;;;;;;5074864;28;20025;-48
2020/12/30 06:29:16;;;;;;;5.85;2.55;;;10.20;86.50;;;;;;5093412;28;20107;-48
2020/12/30 06:31:45;;;;;;;4.85;2.13;;;10.10;86.60;;;;;;5093659;28;20020;-48
2020/12/30 06:34:11;;;;;;;6.05;2.80;;;10.10;86.60;;;;;;5093613;28;20040;-48
2020/12/30 06:36:38;;;;;;;7.25;2.53;;;10.10;87.10;;;;;;5058428;28;20115;-48
2020/12/30 06:39:20;;;;;;;5.25;2.13;;;10.00;87.30;;;;;;5093910;28;20459;-48
2020/12/30 06:42:03;;;;;;;7.72;3.17;;;10.00;87.30;;;;;;5093902;28;20032;-48
2020/12/30 06:44:39;;;;;;;5.57;2.67;;;10.10;87.20;;;;;;5092799;28;20020;-48
2020/12/30 06:47:07;;;;;;;8.02;4.00;;;10.00;87.60;;;;;;5093740;28;20471;-48
2020/12/30 06:49:33;;;;;;;4.78;2.25;;;9.90;87.90;;;;;;5092111;28;20024;-48
2020/12/30 06:51:59;;;;;;;3.00;1.80;;;9.90;88.10;;;;;;5092491;28;20533;-48
2020/12/30 06:54:47;;;;;;;4.30;2.22;;;9.90;88.20;;;;;;5056510;28;20044;-48
2020/12/30 06:57:34;;;;;;;4.13;2.47;;;10.00;88.00;;;;;;5092391;28;20028;-48
2020/12/30 07:00:26;;;;;;;7.45;4.00;;;10.10;87.10;;;;;;5091994;28;20039;-48
2020/12/30 07:03:19;;;;;;;3.92;2.75;;;10.20;87.00;;;;;;5092016;28;20547;-48
2020/12/30 07:05:46;;;;;;;57.60;37.20;;;10.30;86.70;;;;;;5049629;28;20126;-48
2020/12/30 07:08:38;;;;;;;41.10;22.23;;;10.30;86.50;;;;;;5049570;28;20036;-48
2020/12/30 07:11:03;;;;;;;3.88;2.72;;;10.80;85.70;;;;;;5049106;28;20037;-50
2020/12/30 07:13:39;;;;;;;7.18;3.25;;;11.00;84.30;;;;;;5049586;28;20112;-48
2020/12/30 07:16:15;;;;;;;3.40;2.13;;;;;;;;;;5049263;28;20041;-48
2020/12/30 07:18:50;;;;;;;6.30;3.75;;;12.80;86.10;;;;;;5039969;28;20171;-48
2020/12/30 07:21:17;;;;;;;4.35;2.47;;;12.30;77.40;;;;;;5028426;28;20053;-49
2020/12/30 07:23:45;;;;;;;4.55;2.65;;;11.70;78.90;;;;;;5029448;28;20052;-48
2020/12/30 07:26:18;;;;;;;6.70;3.13;;;11.40;81.10;;;;;;5012995;28;20049;-48
2020/12/30 07:28:45;;;;;;;5.00;2.90;;;11.40;81.70;;;;;;5029409;28;20515;-48
2020/12/30 07:31:16;;;;;;;4.10;2.95;;;11.40;81.90;;;;;;5029548;28;20413;-48
2020/12/30 07:33:42;;;;;;;4.40;3.00;;;11.60;80.90;;;;;;5029408;28;20037;-48
2020/12/30 07:36:09;;;;;;;5.38;2.33;;;11.90;79.60;;;;;;5012775;28;20034;-48
2020/12/30 07:38:37;;;;;;;8.63;3.58;;;11.80;80.10;;;;;;5029421;28;20021;-49
2020/12/30 07:41:05;;;;;;;5.57;2.17;;;11.70;80.50;;;;;;5029131;28;20064;-48
2020/12/30 07:43:46;;;;;;;6.35;3.45;;;11.50;81.20;;;;;;5081556;28;20040;-48
2020/12/30 07:46:21;;;;;;;2.97;1.95;;;11.40;81.90;;;;;;5090934;28;20028;-49
2020/12/30 07:48:48;;;;;;;6.28;3.38;;;11.40;82.10;;;;;;5069765;28;20060;-49
2020/12/30 07:51:14;;;;;;;3.78;2.53;;;11.40;82.20;;;;;;5091684;28;20361;-48
2020/12/30 07:53:40;;;;;;;8.45;4.18;;;11.40;81.80;;;;;;5072379;28;20036;-49
2020/12/30 07:56:22;;;;;;;8.60;4.78;;;11.50;81.60;;;;;;5094543;28;20026;-48
2020/12/30 07:58:48;;;;;;;3.13;2.05;;;11.60;82.00;;;;;;5076390;28;20036;-48
2020/12/30 08:01:17;;;;;;;9.32;4.13;;;11.50;82.00;;;;;;5076148;28;20042;-48
2020/12/30 08:03:42;;;;;;;5.60;2.30;;;11.50;82.50;;;;;;5095293;28;20464;-48
2020/12/30 08:06:11;;;;;;;7.85;2.95;;;11.40;82.70;;;;;;5090460;28;20031;-49
2020/12/30 08:08:49;;;;;;;5.82;2.58;;;11.40;82.80;;;;;;5093127;28;20036;-48
2020/12/30 08:11:21;;;;;;;6.88;2.80;;;11.40;83.00;;;;;;5095426;28;20032;-48
2020/12/30 08:13:47;;;;;;;;;;;11.30;83.00;;;;;;5095540;28;20107;-49
2020/12/30 08:16:15;;;;;;;6.03;2.05;;;11.40;82.90;;;;;;5095333;28;19946;-48
2020/12/30 08:18:52;;;;;;;3.83;2.25;;;11.40;82.90;;;;;;5095202;28;20020;-49
2020/12/30 08:21:25;;;;;;;4.82;2.13;;;11.40;83.00;;;;;;5094973;28;20448;-47
2020/12/30 08:24:11;;;;;;;5.47;3.20;;;11.50;83.00;;;;;;5095050;28;20429;-48
2020/12/30 08:26:37;;;;;;;9.38;5.55;;;11.50;82.90;;;;;;5093349;28;20043;-47
2020/12/30 08:29:03;;;;;;;9.55;5.03;;;11.50;82.80;;;;;;5094930;28;20529;-47
2020/12/30 08:31:46;;;;;;;28.38;17.58;;;11.60;82.10;;;;;;5094974;28;20020;-47
2020/12/30 08:34:16;;;;;;;13.15;8.82;;;11.70;81.30;;;;;;5094688;28;20368;-48
2020/12/30 08:36:45;;;;;;;6.05;2.78;;;11.80;81.00;;;;;;5094951;28;20115;-47
2020/12/30 08:39:15;;;;;;;8.68;5.47;;;11.90;80.80;;;;;;5094614;28;20360;-46
2020/12/30 08:41:50;;;;;;;12.48;8.77;;;11.90;80.80;;;;;;5094764;28;20104;-47
2020/12/30 08:44:19;;;;;;;6.82;4.03;;;12.00;80.50;;;;;;5094880;28;20024;-49
2020/12/30 08:46:52;;;;;;;9.10;4.13;;;12.10;80.20;;;;;;5094420;28;20085;-48
2020/12/30 08:49:21;;;;;;;18.55;12.05;;;12.10;80.00;;;;;;5094592;28;20028;-47
2020/12/30 08:51:47;;;;;;;11.40;5.28;;;12.10;80.30;;;;;;5094535;28;20024;-49
2020/12/30 08:54:17;;;;;;;8.00;5.28;;;12.10;80.00;;;;;;5075479;28;20044;-49
2020/12/30 08:56:44;;;;;;;10.70;6.75;;;12.20;80.00;;;;;;5094417;28;20103;-48
2020/12/30 08:59:19;;;;;;;64.95;33.53;;;12.10;80.30;;;;;;5094226;28;20035;-49
2020/12/30 09:01:44;;;;;;;26.85;13.93;;;12.10;80.50;;;;;;5094298;28;20154;-47
2020/12/30 09:04:11;;;;;;;16.02;9.13;;;12.10;80.50;;;;;;5075432;28;20118;-47
2020/12/30 09:06:38;;;;;;;13.30;6.72;;;12.10;80.60;;;;;;5093315;28;20048;-48
2020/12/30 09:09:09;;;;;;;26.80;18.10;;;12.10;80.60;;;;;;5091925;28;20082;-49
2020/12/30 09:11:37;;;;;;;31.83;18.83;;;12.10;80.80;;;;;;5070694;28;20032;-48
2020/12/30 09:14:17;;;;;;;73.22;38.55;;;12.10;80.40;;;;;;5071804;28;20033;-48
2020/12/30 09:17:04;;;;;;;38.88;27.63;;;12.10;80.80;;;;;;5071802;28;20032;-48
2020/12/30 09:19:30;;;;;;;41.03;30.02;;;12.30;79.90;;;;;;5093691;28;20462;-47
2020/12/30 09:22:06;;;;;;;46.83;35.72;;;;;;;;;;5082701;28;20057;-48
2020/12/30 09:24:41;;;;;;;37.03;28.27;;;12.60;99.90;;;;;;5073433;28;20031;-51
2020/12/30 09:27:21;;;;;;;13.48;9.10;;;12.60;78.40;;;;;;5073711;28;20103;-49
2020/12/30 09:30:13;;;;;;;11.50;7.60;;;12.50;79.30;;;;;;5073566;28;20048;-48
2020/12/30 09:32:40;;;;;;;19.10;9.50;;;12.30;80.90;;;;;;5073436;28;20028;-47
2020/12/30 09:35:08;;;;;;;14.45;9.93;;;12.10;82.50;;;;;;5038044;28;20137;-47
2020/12/30 09:37:35;;;;;;;15.15;8.95;;;;;;;;;;5037890;28;20040;-49
2020/12/30 09:40:11;;;;;;;16.38;10.88;;;11.90;83.20;;;;;;5073253;28;20040;-46
2020/12/30 09:42:39;;;;;;;30.33;20.08;;;11.90;84.00;;;;;;5074793;28;20020;-45
2020/12/30 09:45:07;;;;;;;34.25;20.35;;;11.90;84.70;;;;;;5074458;28;20020;-48
2020/12/30 09:47:34;;;;;;;11.50;8.00;;;11.80;84.60;;;;;;5074371;28;20086;-48
2020/12/30 09:50:01;;;;;;;9.52;4.63;;;11.80;85.40;;;;;;5074335;28;20024;-48
2020/12/30 09:52:27;;;;;;;29.13;18.77;;;11.70;86.30;;;;;;5039767;28;20539;-49
2020/12/30 09:54:53;;;;;;;44.13;23.00;;;11.80;85.90;;;;;;5074763;28;20085;-48
2020/12/30 09:57:18;;;;;;;37.53;22.35;;;11.80;85.30;;;;;;5084038;28;20035;-46
2020/12/30 09:59:44;;;;;;;50.20;39.80;;;11.80;85.70;;;;;;5075689;28;20384;-47
2020/12/30 10:02:10;;;;;;;63.53;42.55;;;12.00;85.10;;;;;;5094343;28;20028;-45
2020/12/30 10:04:38;;;;;;;128.95;81.20;;;12.00;84.00;;;;;;5088429;28;20500;-48
2020/12/30 10:07:03;;;;;;;58.67;37.00;;;12.20;83.30;;;;;;5074485;28;20063;-49
2020/12/30 10:09:29;;;;;;;16.40;10.77;;;12.20;83.40;;;;;;5089166;28;20066;-46
2020/12/30 10:11:55;;;;;;;13.85;8.00;;;12.00;84.20;;;;;;5084624;28;20032;-48
2020/12/30 10:14:22;;;;;;;12.52;8.40;;;12.00;84.40;;;;;;5041562;28;20059;-45
2020/12/30 10:16:48;;;;;;;11.63;8.43;;;11.90;85.00;;;;;;5075018;28;20404;-48
2020/12/30 10:19:15;;;;;;;10.27;7.70;;;11.90;85.40;;;;;;5077772;28;20450;-48
2020/12/30 10:21:40;;;;;;;12.38;6.65;;;11.90;85.80;;;;;;5073470;28;20060;-47
2020/12/30 10:24:06;;;;;;;12.93;8.07;;;11.90;85.90;;;;;;5073691;28;20115;-46
2020/12/30 10:26:33;;;;;;;17.55;9.35;;;11.90;86.20;;;;;;5073664;28;20052;-46
2020/12/30 10:28:59;;;;;;;14.57;10.07;;;12.00;86.50;;;;;;5073826;28;20477;-47
2020/12/30 10:31:25;;;;;;;16.95;10.43;;;12.00;85.20;;;;;;5073632;28;20101;-46
2020/12/30 10:33:51;;;;;;;15.13;9.95;;;12.00;86.00;;;;;;5073634;28;20472;-45
2020/12/30 10:36:17;;;;;;;13.80;10.00;;;11.90;86.40;;;;;;5073491;28;20107;-48
2020/12/30 10:38:43;;;;;;;12.98;9.70;;;11.80;87.20;;;;;;5072070;28;20536;-46
2020/12/30 10:41:14;;;;;;;20.25;11.68;;;11.70;88.10;;;;;;5084820;28;20051;-49
2020/12/30 10:43:40;;;;;;;12.02;8.23;;;11.60;88.70;;;;;;5093667;28;20396;-45
2020/12/30 10:46:14;;;;;;;16.52;10.80;;;11.50;89.90;;;;;;5093616;28;20416;-45
2020/12/30 10:48:47;;;;;;;18.52;11.25;;;11.50;90.50;;;;;;5093821;28;20032;-49
2020/12/30 10:51:17;;;;;;;13.52;9.73;;;11.50;90.90;;;;;;5074962;28;20028;-47
2020/12/30 10:53:44;;;;;;;13.20;8.93;;;11.50;91.10;;;;;;5093665;28;20039;-45
2020/12/30 10:56:11;;;;;;;14.52;9.80;;;11.70;91.10;;;;;;5093459;28;20020;-45
2020/12/30 10:58:40;;;;;;;16.42;9.52;;;11.80;90.90;;;;;;5093929;28;20364;-49
2020/12/30 11:01:10;;;;;;;15.63;10.02;;;11.90;91.00;;;;;;5093481;28;20036;-45
2020/12/30 11:03:36;;;;;;;17.25;10.02;;;12.00;91.20;;;;;;5092760;28;20047;-44
2020/12/30 11:06:02;;;;;;;15.05;9.30;;;12.00;91.20;;;;;;5074853;28;20056;-46
2020/12/30 11:08:28;;;;;;;18.75;11.55;;;11.90;91.30;;;;;;5093476;28;20024;-46
2020/12/30 11:10:58;;;;;;;16.73;10.38;;;12.00;91.40;;;;;;5093603;28;20403;-46
2020/12/30 11:13:25;;;;;;;17.00;10.38;;;12.10;91.20;;;;;;5093383;28;20074;-44
2020/12/30 11:15:51;;;;;;;15.55;10.38;;;12.00;91.60;;;;;;5093534;28;20039;-45
2020/12/30 11:18:17;;;;;;;22.25;12.90;;;12.00;91.90;;;;;;5093545;28;20112;-44
2020/12/30 11:20:43;;;;;;;20.90;12.05;;;11.80;92.10;;;;;;5093085;28;20504;-45
2020/12/30 11:23:09;;;;;;;36.20;21.42;;;11.70;92.50;;;;;;5093306;28;20027;-47
2020/12/30 11:25:34;;;;;;;17.13;12.05;;;11.80;92.30;;;;;;5091794;28;20043;-46
2020/12/30 11:28:01;;;;;;;19.05;11.30;;;11.90;92.30;;;;;;5093178;28;20039;-45
2020/12/30 11:30:28;;;;;;;12.63;9.68;;;12.00;92.00;;;;;;5095262;28;20032;-45
2020/12/30 11:32:53;;;;;;;17.60;10.68;;;12.00;91.90;;;;;;5097314;28;20028;-47
2020/12/30 11:35:19;;;;;;;30.05;23.40;;;12.20;91.90;;;;;;5078514;28;20063;-47
2020/12/30 11:37:45;;;;;;;61.55;44.03;;;12.20;91.70;;;;;;5097136;28;20020;-45
2020/12/30 11:40:11;;;;;;;47.08;36.72;;;12.20;91.50;;;;;;5078608;28;20058;-47
2020/12/30 11:42:37;;;;;;;19.42;17.08;;;12.10;91.60;;;;;;5077488;28;20085;-46
2020/12/30 11:45:03;;;;;;;50.42;39.47;;;12.10;92.00;;;;;;5096926;28;20066;-47
2020/12/30 11:47:31;;;;;;;64.20;42.03;;;12.40;91.30;;;;;;5097026;28;20065;-47
2020/12/30 11:49:58;;;;;;;15.75;11.57;;;12.30;91.50;;;;;;5096968;28;20027;-48
2020/12/30 11:52:23;;;;;;;16.23;12.88;;;12.30;91.50;;;;;;5097234;28;20024;-46
2020/12/30 11:54:49;;;;;;;22.83;16.48;;;12.40;91.50;;;;;;5097033;28;20373;-46
2020/12/30 11:57:15;;;;;;;26.00;19.05;;;12.40;91.20;;;;;;5096683;28;20427;-44
2020/12/30 11:59:41;;;;;;;21.27;13.45;;;12.50;91.20;;;;;;5061287;28;20109;-47
2020/12/30 12:02:07;;;;;;;33.92;19.75;;;12.50;91.20;;;;;;5096541;28;20032;-45
2020/12/30 12:04:32;;;;;;;42.78;23.95;;;12.40;91.40;;;;;;5078107;28;20039;-45
2020/12/30 12:07:02;;;;;;;41.72;21.33;;;12.40;91.40;;;;;;5096530;28;20020;-45
2020/12/30 12:09:28;;;;;;;34.80;20.75;;;12.60;91.50;;;;;;5096450;28;20028;-44
2020/12/30 12:11:54;;;;;;;32.97;20.23;;;12.70;91.40;;;;;;5096524;28;20080;-45
2020/12/30 12:14:20;;;;;;;32.38;17.77;;;12.70;91.40;;;;;;5096619;28;20036;-43
2020/12/30 12:16:57;;;;;;;17.83;11.18;;;12.80;91.10;;;;;;5096541;28;20352;-45
2020/12/30 12:19:24;;;;;;;14.63;9.15;;;12.70;91.10;;;;;;5096346;28;20052;-45
2020/12/30 12:21:50;;;;;;;15.60;9.55;;;12.70;90.90;;;;;;5096144;28;20048;-46
2020/12/30 12:24:16;;;;;;;22.15;14.57;;;12.70;91.00;;;;;;5096438;28;20035;-48
2020/12/30 12:26:42;;;;;;;38.03;26.13;;;12.60;90.80;;;;;;5096395;28;20073;-46
2020/12/30 12:29:35;;;;;;;90.53;60.05;;;12.40;91.20;;;;;;5096086;28;20028;-45
2020/12/30 12:32:18;;;;;;;35.13;23.50;;;12.40;91.20;;;;;;5096252;28;20353;-43
2020/12/30 12:34:46;;;;;;;16.10;10.70;;;12.40;91.30;;;;;;5076454;28;20174;-48
2020/12/30 12:37:14;;;;;;;12.73;9.55;;;12.60;91.10;;;;;;5095882;28;20047;-46
2020/12/30 12:39:41;;;;;;;24.33;16.05;;;12.60;91.00;;;;;;5077410;28;20520;-46
2020/12/30 12:42:07;;;;;;;39.83;23.70;;;12.80;90.80;;;;;;5095755;28;20034;-46
2020/12/30 12:44:33;;;;;;;56.42;30.58;;;12.80;90.80;;;;;;5094377;28;20028;-44
2020/12/30 12:46:59;;;;;;;21.02;15.55;;;12.90;90.90;;;;;;5077260;28;20430;-45
2020/12/30 12:49:25;;;;;;;16.55;12.55;;;12.80;90.90;;;;;;5095038;28;20027;-46